createdAt,value
2022-10-30T00:00:36.846Z,48.48
2022-10-30T00:03:04.296Z,48.33
2022-10-30T00:05:31.244Z,48.79
2022-10-30T00:07:59.585Z,48.34
2022-10-30T00:10:26.510Z,48.57
2022-10-30T00:12:53.703Z,48.63
2022-10-30T00:15:20.293Z,48.75
2022-10-30T00:17:46.860Z,49.13
2022-10-30T00:20:13.414Z,49.09
2022-10-30T00:22:39.965Z,48.17
2022-10-30T00:25:06.860Z,49.08
2022-10-30T00:27:33.393Z,49.30
2022-10-30T00:29:59.958Z,48.34
2022-10-30T00:32:28.577Z,47.86
2022-10-30T00:34:55.161Z,47.23
2022-10-30T00:37:21.809Z,47.14
2022-10-30T00:39:49.312Z,47.54
2022-10-30T00:42:17.583Z,47.84
2022-10-30T00:44:44.250Z,48.49
2022-10-30T00:47:23.278Z,47.15
2022-10-30T00:49:58.837Z,47.35
2022-10-30T00:52:29.837Z,46.60
2022-10-30T00:54:58.368Z,46.53
2022-10-30T00:57:27.109Z,46.46
2022-10-30T00:59:54.014Z,46.79
2022-10-30T01:02:21.559Z,46.62
2022-10-30T01:04:51.143Z,46.94
2022-10-30T01:07:18.100Z,47.24
2022-10-30T01:09:46.836Z,47.15
2022-10-30T01:12:15.802Z,47.57
2022-10-30T01:14:52.124Z,47.57
2022-10-30T01:17:58.887Z,47.42
2022-10-30T01:20:41.377Z,46.74
2022-10-30T01:23:13.802Z,47.41
2022-10-30T01:26:10.921Z,46.41
2022-10-30T01:29:14.866Z,46.06
2022-10-30T01:31:51.932Z,46.77
2022-10-30T01:34:28.468Z,46.59
2022-10-30T01:37:02.877Z,46.50
2022-10-30T01:39:37.378Z,46.02
2022-10-30T01:42:45.709Z,45.82
2022-10-30T01:45:21.930Z,46.27
2022-10-30T01:47:59.660Z,45.38
2022-10-30T01:50:39.433Z,45.27
2022-10-30T01:53:20.707Z,45.21
2022-10-30T01:56:10.481Z,45.61
2022-10-30T01:58:48.011Z,45.50
2022-10-30T02:01:15.523Z,45.52
2022-10-30T02:03:43.907Z,45.21
2022-10-30T02:06:10.507Z,45.17
2022-10-30T02:08:37.491Z,45.49
2022-10-30T02:11:05.285Z,46.01
2022-10-30T02:13:38.456Z,46.13
2022-10-30T02:16:05.829Z,45.11
2022-10-30T02:18:32.493Z,45.53
2022-10-30T02:21:01.070Z,45.75
2022-10-30T02:23:27.711Z,46.70
2022-10-30T02:25:54.922Z,46.79
2022-10-30T02:28:21.701Z,47.63
2022-10-30T02:30:48.885Z,47.75
2022-10-30T02:33:15.503Z,46.80
2022-10-30T02:35:42.422Z,47.01
2022-10-30T02:38:09.116Z,47.44
2022-10-30T02:40:35.692Z,47.18
2022-10-30T02:43:02.446Z,46.20
2022-10-30T02:45:29.767Z,45.75
2022-10-30T02:47:56.763Z,46.00
2022-10-30T02:50:23.596Z,46.03
2022-10-30T02:52:51.557Z,45.64
2022-10-30T02:55:18.214Z,45.29
2022-10-30T02:57:44.997Z,45.35
2022-10-30T03:00:12.803Z,45.61
2022-10-30T03:02:39.697Z,46.00
2022-10-30T03:05:06.838Z,45.51
2022-10-30T03:07:33.689Z,45.29
2022-10-30T03:10:00.630Z,45.38
2022-10-30T03:12:27.579Z,45.21
2022-10-30T03:14:54.175Z,44.76
2022-10-30T03:17:20.919Z,45.31
2022-10-30T03:19:48.980Z,45.77
2022-10-30T03:22:15.571Z,45.98
2022-10-30T03:24:42.316Z,45.28
2022-10-30T03:27:08.886Z,45.71
2022-10-30T03:29:35.576Z,45.33
2022-10-30T03:32:04.128Z,45.54
2022-10-30T03:34:35.841Z,44.83
2022-10-30T03:37:06.425Z,44.64
2022-10-30T03:39:33.605Z,44.52
2022-10-30T03:42:02.304Z,44.54
2022-10-30T03:44:28.887Z,44.19
2022-10-30T03:46:56.425Z,44.60
2022-10-30T03:49:29.936Z,44.59
2022-10-30T03:51:57.544Z,44.55
2022-10-30T03:54:25.934Z,43.95
2022-10-30T03:56:52.605Z,44.42
2022-10-30T03:59:20.077Z,44.56
2022-10-30T04:02:03.999Z,44.87
2022-10-30T04:04:32.788Z,45.01
2022-10-30T04:06:59.427Z,44.73
2022-10-30T04:09:25.988Z,44.29
2022-10-30T04:11:53.587Z,44.83
2022-10-30T04:14:20.199Z,45.35
2022-10-30T04:16:48.177Z,45.01
2022-10-30T04:19:15.144Z,45.01
2022-10-30T04:21:46.358Z,45.19
2022-10-30T04:24:16.075Z,45.71
2022-10-30T04:26:44.943Z,45.54
2022-10-30T04:29:12.145Z,46.05
2022-10-30T04:31:39.396Z,45.48
2022-10-30T04:34:06.087Z,45.69
2022-10-30T04:36:35.521Z,45.83
2022-10-30T04:39:02.556Z,46.12
2022-10-30T04:41:29.519Z,45.56
2022-10-30T04:44:04.045Z,44.96
2022-10-30T04:46:33.011Z,45.30
2022-10-30T04:49:06.956Z,44.88
2022-10-30T04:51:33.538Z,44.76
2022-10-30T04:54:01.391Z,44.69
2022-10-30T04:56:32.876Z,45.16
2022-10-30T04:58:59.824Z,44.92
2022-10-30T05:01:26.523Z,45.13
2022-10-30T05:03:54.796Z,45.03
2022-10-30T05:06:25.065Z,45.40
2022-10-30T05:08:52.089Z,44.62
2022-10-30T05:11:45.365Z,44.69
2022-10-30T05:14:13.112Z,45.25
2022-10-30T05:16:39.740Z,45.30
2022-10-30T05:19:07.365Z,45.13
2022-10-30T05:21:35.161Z,45.30
2022-10-30T05:24:02.126Z,45.22
2022-10-30T05:26:35.919Z,44.76
2022-10-30T05:29:02.774Z,44.92
2022-10-30T05:31:29.764Z,45.54
2022-10-30T05:34:07.416Z,45.54
2022-10-30T05:36:35.994Z,45.63
2022-10-30T05:39:03.348Z,45.33
2022-10-30T05:41:34.233Z,45.05
2022-10-30T05:44:01.171Z,45.97
2022-10-30T05:46:27.790Z,45.66
2022-10-30T05:48:56.373Z,46.09
2022-10-30T05:51:24.239Z,45.79
2022-10-30T05:53:55.024Z,46.47
2022-10-30T05:56:25.604Z,46.37
2022-10-30T05:58:52.173Z,47.20
2022-10-30T06:01:18.867Z,47.20
2022-10-30T06:03:50.124Z,47.36
2022-10-30T06:06:17.146Z,47.40
2022-10-30T06:08:44.534Z,47.04
2022-10-30T06:11:30.248Z,47.28
2022-10-30T06:13:59.117Z,47.13
2022-10-30T06:16:38.597Z,46.32
2022-10-30T06:19:22.042Z,45.97
2022-10-30T06:21:51.442Z,46.65
2022-10-30T06:24:27.693Z,46.56
2022-10-30T06:27:26.683Z,46.53
2022-10-30T06:29:54.884Z,47.10
2022-10-30T06:32:22.044Z,48.19
2022-10-30T06:34:49.328Z,47.58
2022-10-30T06:37:17.827Z,45.92
2022-10-30T06:39:44.918Z,46.08
2022-10-30T06:42:48.495Z,45.62
2022-10-30T06:45:37.161Z,45.19
2022-10-30T06:48:03.802Z,45.06
2022-10-30T06:50:36.389Z,44.86
2022-10-30T06:53:02.952Z,44.45
2022-10-30T06:55:29.849Z,44.46
2022-10-30T06:58:19.884Z,44.57
2022-10-30T07:00:52.652Z,44.13
2022-10-30T07:03:42.516Z,43.92
2022-10-30T07:06:09.126Z,44.25
2022-10-30T07:08:36.421Z,44.58
2022-10-30T07:11:03.285Z,43.81
2022-10-30T07:14:00.363Z,44.44
2022-10-30T07:16:33.769Z,44.42
2022-10-30T07:19:04.469Z,43.95
2022-10-30T07:21:32.175Z,43.90
2022-10-30T07:23:58.830Z,44.14
2022-10-30T07:26:33.579Z,44.76
2022-10-30T07:29:06.491Z,45.32
2022-10-30T07:31:42.628Z,45.59
2022-10-30T07:34:55.070Z,44.84
2022-10-30T07:37:35.178Z,43.31
2022-10-30T07:40:12.532Z,41.66
2022-10-30T07:43:06.207Z,40.00
2022-10-30T07:45:58.816Z,39.13
2022-10-30T07:48:44.171Z,37.72
2022-10-30T07:51:28.891Z,36.71
2022-10-30T07:53:55.491Z,35.56
2022-10-30T07:56:23.846Z,34.94
2022-10-30T07:58:56.151Z,34.73
2022-10-30T08:01:44.381Z,34.89
2022-10-30T08:04:32.097Z,32.64
2022-10-30T08:07:06.658Z,32.53
2022-10-30T08:09:35.216Z,31.52
2022-10-30T08:12:02.352Z,32.08
2022-10-30T08:14:29.426Z,32.34
2022-10-30T08:16:56.663Z,32.04
2022-10-30T08:19:23.628Z,31.70
2022-10-30T08:21:50.255Z,30.65
2022-10-30T08:24:18.974Z,30.29
2022-10-30T08:26:47.900Z,30.17
2022-10-30T08:29:15.221Z,29.98
2022-10-30T08:31:43.884Z,30.08
2022-10-30T08:34:23.015Z,29.78
2022-10-30T08:36:52.771Z,30.02
2022-10-30T08:39:20.032Z,29.08
2022-10-30T08:42:04.589Z,28.79
2022-10-30T08:44:37.009Z,28.32
2022-10-30T08:47:22.370Z,27.96
2022-10-30T08:49:49.724Z,28.31
2022-10-30T08:52:19.618Z,28.19
2022-10-30T08:54:51.751Z,27.89
2022-10-30T08:57:18.590Z,28.32
2022-10-30T08:59:45.479Z,27.96
2022-10-30T09:02:31.037Z,27.64
2022-10-30T09:05:37.300Z,28.89
2022-10-30T09:08:23.905Z,28.31
2022-10-30T09:11:03.043Z,28.05
2022-10-30T09:13:30.171Z,27.73
2022-10-30T09:16:02.381Z,27.78
2022-10-30T09:18:31.606Z,29.21
2022-10-30T09:21:01.587Z,28.94
2022-10-30T09:23:33.390Z,28.54
2022-10-30T09:26:20.905Z,28.16
2022-10-30T09:29:00.527Z,28.51
2022-10-30T09:31:46.013Z,29.12
2022-10-30T09:34:17.337Z,29.17
2022-10-30T09:36:58.710Z,29.09
2022-10-30T09:39:25.614Z,28.37
2022-10-30T09:42:08.611Z,27.86
2022-10-30T09:45:27.222Z,28.18
2022-10-30T09:48:51.514Z,28.14
2022-10-30T09:51:38.870Z,28.19
2022-10-30T09:54:23.677Z,28.34
2022-10-30T09:57:11.290Z,28.50
2022-10-30T09:59:56.559Z,27.94
2022-10-30T10:02:45.102Z,27.83
2022-10-30T10:05:21.219Z,28.32
2022-10-30T10:08:21.758Z,29.71
2022-10-30T10:11:24.511Z,28.91
2022-10-30T10:13:58.689Z,29.15
2022-10-30T10:16:30.265Z,29.42
2022-10-30T10:19:13.183Z,29.08
2022-10-30T10:21:46.387Z,28.82
2022-10-30T10:24:23.694Z,29.55
2022-10-30T10:26:57.586Z,29.37
2022-10-30T10:29:34.029Z,29.92
2022-10-30T10:32:24.153Z,29.35
2022-10-30T10:34:59.415Z,30.16
2022-10-30T10:37:40.756Z,29.88
2022-10-30T10:40:44.224Z,30.84
2022-10-30T10:43:13.711Z,30.67
2022-10-30T10:45:52.622Z,31.46
2022-10-30T10:48:38.334Z,31.54
2022-10-30T10:51:09.666Z,33.24
2022-10-30T10:53:57.590Z,33.14
2022-10-30T10:56:38.019Z,34.38
2022-10-30T10:59:13.130Z,34.45
2022-10-30T11:01:44.178Z,35.27
2022-10-30T11:04:26.353Z,34.94
2022-10-30T11:06:55.496Z,34.45
2022-10-30T11:09:24.449Z,34.81
2022-10-30T11:11:53.376Z,35.45
2022-10-30T11:14:22.450Z,35.59
2022-10-30T11:16:51.688Z,35.78
2022-10-30T11:19:19.145Z,35.98
2022-10-30T11:21:51.508Z,36.70
2022-10-30T11:24:50.589Z,37.09
2022-10-30T11:27:23.205Z,37.54
2022-10-30T11:30:05.562Z,36.83
2022-10-30T11:32:34.199Z,37.21
2022-10-30T11:35:07.216Z,37.56
2022-10-30T11:37:36.147Z,37.67
2022-10-30T11:40:11.660Z,37.20
2022-10-30T11:42:42.630Z,36.63
2022-10-30T11:45:23.853Z,38.02
2022-10-30T11:47:52.118Z,37.63
2022-10-30T11:50:22.788Z,38.04
2022-10-30T11:52:53.803Z,37.81
2022-10-30T11:55:29.822Z,37.95
2022-10-30T11:57:58.392Z,38.71
2022-10-30T12:00:30.530Z,38.29
2022-10-30T12:03:02.081Z,37.67
2022-10-30T12:05:32.012Z,38.61
2022-10-30T12:08:07.820Z,39.42
2022-10-30T12:10:56.151Z,38.87
2022-10-30T12:13:24.393Z,38.59
2022-10-30T12:16:04.701Z,38.65
2022-10-30T12:18:32.394Z,38.76
2022-10-30T12:20:59.666Z,39.19
2022-10-30T12:23:28.704Z,39.58
2022-10-30T12:26:01.600Z,39.17
2022-10-30T12:28:31.524Z,39.83
2022-10-30T12:31:11.397Z,38.85
2022-10-30T12:34:06.210Z,38.70
2022-10-30T12:36:54.261Z,37.82
2022-10-30T12:39:32.517Z,38.70
2022-10-30T12:42:14.681Z,38.55
2022-10-30T12:44:47.840Z,39.08
2022-10-30T12:47:20.441Z,39.60
2022-10-30T12:50:13.997Z,39.41
2022-10-30T12:52:47.552Z,39.39
2022-10-30T12:55:41.595Z,39.62
2022-10-30T12:58:18.551Z,38.82
2022-10-30T13:00:57.549Z,38.44
2022-10-30T13:03:32.671Z,38.20
2022-10-30T13:06:16.341Z,38.02
2022-10-30T13:09:05.546Z,38.25
2022-10-30T13:11:45.648Z,37.42
2022-10-30T13:14:18.811Z,37.27
2022-10-30T13:16:45.424Z,36.77
2022-10-30T13:19:13.715Z,36.68
2022-10-30T13:21:59.253Z,36.86
2022-10-30T13:25:00.769Z,35.96
2022-10-30T13:27:51.095Z,36.59
2022-10-30T13:30:21.043Z,37.37
2022-10-30T13:33:08.941Z,36.92
2022-10-30T13:35:56.601Z,36.72
2022-10-30T13:38:40.504Z,37.37
2022-10-30T13:41:38.573Z,37.41
2022-10-30T13:44:12.296Z,37.35
2022-10-30T13:46:47.855Z,37.29
2022-10-30T13:49:27.814Z,36.89
2022-10-30T13:52:05.872Z,37.06
2022-10-30T13:54:37.580Z,36.41
2022-10-30T13:57:31.343Z,36.14
2022-10-30T14:00:13.488Z,36.88
2022-10-30T14:02:59.003Z,37.50
2022-10-30T14:05:43.918Z,37.76
2022-10-30T14:08:22.324Z,37.18
2022-10-30T14:10:57.504Z,37.38
2022-10-30T14:13:29.250Z,37.48
2022-10-30T14:16:00.626Z,37.72
2022-10-30T14:18:30.401Z,38.45
2022-10-30T14:20:59.521Z,38.92
2022-10-30T14:23:36.595Z,38.69
2022-10-30T14:26:03.461Z,38.92
2022-10-30T14:28:35.873Z,39.29
2022-10-30T14:31:28.766Z,39.51
2022-10-30T14:33:55.690Z,39.63
2022-10-30T14:36:46.919Z,39.27
2022-10-30T14:39:13.436Z,40.00
2022-10-30T14:42:07.579Z,39.75
2022-10-30T14:44:47.186Z,40.60
2022-10-30T14:47:41.888Z,40.82
2022-10-30T14:50:28.171Z,40.47
2022-10-30T14:53:09.983Z,40.63
2022-10-30T14:55:36.608Z,40.58
2022-10-30T14:58:03.163Z,40.79
2022-10-30T15:00:32.769Z,40.26
2022-10-30T15:03:39.652Z,40.29
2022-10-30T15:06:21.963Z,39.96
2022-10-30T15:09:14.798Z,39.88
2022-10-30T15:12:16.903Z,40.46
2022-10-30T15:14:59.581Z,40.15
2022-10-30T15:17:31.583Z,40.41
2022-10-30T15:20:01.425Z,40.13
2022-10-30T15:22:30.179Z,39.86
2022-10-30T15:24:56.922Z,40.70
2022-10-30T15:27:25.923Z,40.27
2022-10-30T15:29:56.235Z,40.13
2022-10-30T15:32:24.432Z,40.26
2022-10-30T15:35:02.972Z,40.52
2022-10-30T15:37:31.158Z,40.38
2022-10-30T15:40:10.723Z,40.21
2022-10-30T15:42:39.182Z,41.06
2022-10-30T15:45:15.707Z,40.94
2022-10-30T15:47:48.346Z,39.96
2022-10-30T15:50:17.003Z,39.86
2022-10-30T15:52:43.966Z,39.43
2022-10-30T15:55:16.616Z,39.60
2022-10-30T15:58:13.155Z,39.95
2022-10-30T16:00:36.744Z,40.51
2022-10-30T16:03:16.208Z,40.41
2022-10-30T16:05:42.927Z,41.07
2022-10-30T16:08:14.649Z,40.86
2022-10-30T16:10:44.055Z,41.59
2022-10-30T16:13:18.298Z,41.99
2022-10-30T16:15:47.959Z,41.73
2022-10-30T16:18:16.816Z,41.86
2022-10-30T16:20:47.840Z,42.13
2022-10-30T16:23:17.620Z,41.81
2022-10-30T16:25:47.161Z,42.63
2022-10-30T16:28:30.168Z,42.41
2022-10-30T16:31:00.119Z,42.15
2022-10-30T16:33:30.532Z,42.45
2022-10-30T16:35:58.268Z,43.02
2022-10-30T16:38:28.738Z,43.03
2022-10-30T16:40:56.313Z,42.89
2022-10-30T16:43:33.912Z,43.06
2022-10-30T16:46:15.585Z,43.07
2022-10-30T16:48:48.635Z,43.94
2022-10-30T16:51:17.621Z,43.45
2022-10-30T16:53:48.741Z,43.97
2022-10-30T16:56:26.487Z,44.33
2022-10-30T16:58:56.315Z,45.12
2022-10-30T17:01:27.078Z,45.98
2022-10-30T17:03:55.492Z,46.09
2022-10-30T17:06:40.056Z,46.10
2022-10-30T17:09:28.653Z,45.33
2022-10-30T17:12:12.901Z,44.82
2022-10-30T17:15:11.104Z,45.51
2022-10-30T17:17:40.053Z,44.70
2022-10-30T17:20:30.788Z,44.60
2022-10-30T17:23:18.991Z,45.32
2022-10-30T17:25:46.924Z,44.99
2022-10-30T17:28:46.868Z,45.21
2022-10-30T17:31:31.741Z,45.31
2022-10-30T17:34:10.950Z,44.75
2022-10-30T17:36:38.147Z,44.75
2022-10-30T17:39:04.900Z,45.12
2022-10-30T17:41:31.688Z,45.50
2022-10-30T17:43:59.593Z,45.04
2022-10-30T17:46:26.282Z,45.26
2022-10-30T17:48:53.073Z,45.77
2022-10-30T17:51:19.888Z,45.29
2022-10-30T17:53:49.729Z,45.96
2022-10-30T17:56:31.457Z,45.11
2022-10-30T17:58:58.844Z,45.39
2022-10-30T18:01:26.907Z,45.03
2022-10-30T18:03:55.393Z,44.86
2022-10-30T18:06:25.662Z,45.48
2022-10-30T18:08:53.444Z,45.00
2022-10-30T18:11:22.933Z,45.33
2022-10-30T18:13:51.777Z,44.65
2022-10-30T18:16:19.414Z,45.20
2022-10-30T18:18:46.211Z,44.44
2022-10-30T18:21:15.121Z,44.49
2022-10-30T18:23:57.707Z,44.98
2022-10-30T18:26:27.203Z,44.51
2022-10-30T18:28:54.758Z,43.90
2022-10-30T18:31:23.560Z,43.50
2022-10-30T18:33:50.361Z,43.53
2022-10-30T18:36:19.872Z,43.70
2022-10-30T18:38:47.359Z,44.20
2022-10-30T18:41:33.919Z,45.00
2022-10-30T18:44:00.981Z,44.30
2022-10-30T18:46:30.693Z,44.01
2022-10-30T18:48:57.671Z,43.93
2022-10-30T18:51:28.592Z,43.83
2022-10-30T18:53:56.949Z,43.99
2022-10-30T18:56:26.833Z,43.63
2022-10-30T18:58:58.760Z,43.00
2022-10-30T19:01:32.045Z,43.71
2022-10-30T19:04:03.606Z,44.10
2022-10-30T19:06:30.845Z,43.93
2022-10-30T19:08:57.578Z,44.31
2022-10-30T19:11:25.434Z,43.61
2022-10-30T19:13:53.827Z,43.77
2022-10-30T19:16:21.636Z,44.06
2022-10-30T19:18:48.853Z,44.02
2022-10-30T19:21:18.366Z,44.07
2022-10-30T19:23:45.356Z,43.83
2022-10-30T19:26:14.829Z,43.95
2022-10-30T19:28:41.967Z,44.03
2022-10-30T19:31:13.837Z,44.27
2022-10-30T19:33:40.655Z,44.47
2022-10-30T19:36:26.899Z,44.79
2022-10-30T19:38:54.029Z,45.68
2022-10-30T19:41:20.912Z,45.49
2022-10-30T19:43:48.295Z,45.96
2022-10-30T19:46:16.168Z,45.32
2022-10-30T19:48:59.895Z,45.82
2022-10-30T19:51:28.233Z,45.81
2022-10-30T19:53:55.475Z,45.82
2022-10-30T19:56:22.255Z,45.74
2022-10-30T19:58:49.758Z,45.81
2022-10-30T20:01:18.677Z,46.06
2022-10-30T20:03:45.896Z,45.94
2022-10-30T20:06:13.556Z,46.17
2022-10-30T20:08:40.867Z,46.04
2022-10-30T20:11:07.619Z,45.86
2022-10-30T20:13:34.666Z,46.00
2022-10-30T20:16:04.531Z,44.94
2022-10-30T20:18:34.417Z,45.32
2022-10-30T20:21:15.106Z,45.88
2022-10-30T20:23:42.057Z,45.11
2022-10-30T20:26:26.812Z,46.64
2022-10-30T20:28:54.266Z,45.93
2022-10-30T20:31:21.965Z,46.27
2022-10-30T20:33:48.573Z,46.70
2022-10-30T20:36:15.310Z,46.67
2022-10-30T20:38:42.621Z,46.69
2022-10-30T20:41:20.587Z,45.77
2022-10-30T20:43:47.277Z,46.32
2022-10-30T20:46:13.989Z,46.20
2022-10-30T20:48:40.827Z,46.48
2022-10-30T20:51:07.552Z,47.05
2022-10-30T20:53:34.270Z,46.30
2022-10-30T20:56:01.027Z,46.28
2022-10-30T20:58:27.935Z,46.32
2022-10-30T21:00:57.931Z,46.92
2022-10-30T21:03:26.005Z,46.93
2022-10-30T21:05:58.408Z,46.78
2022-10-30T21:08:29.553Z,47.01
2022-10-30T21:11:03.711Z,46.88
2022-10-30T21:13:30.845Z,46.51
2022-10-30T21:16:04.615Z,46.84
2022-10-30T21:18:31.480Z,46.77
2022-10-30T21:21:06.405Z,46.33
2022-10-30T21:23:33.026Z,46.07
2022-10-30T21:26:00.942Z,46.14
2022-10-30T21:28:27.530Z,46.24
2022-10-30T21:30:54.130Z,46.60
2022-10-30T21:33:20.705Z,47.74
2022-10-30T21:35:47.274Z,47.71
2022-10-30T21:38:13.815Z,46.86
2022-10-30T21:40:40.445Z,47.46
2022-10-30T21:43:07.511Z,47.11
2022-10-30T21:45:34.373Z,46.86
2022-10-30T21:48:01.235Z,46.43
2022-10-30T21:50:27.795Z,46.30
2022-10-30T21:52:54.878Z,46.31
2022-10-30T21:55:21.449Z,46.70
2022-10-30T21:57:48.004Z,46.25
2022-10-30T22:00:15.285Z,46.62
2022-10-30T22:02:41.828Z,46.65
2022-10-30T22:05:09.057Z,46.50
2022-10-30T22:07:35.683Z,46.51
2022-10-30T22:10:02.374Z,46.94
2022-10-30T22:12:28.951Z,47.02
2022-10-30T22:14:55.501Z,46.25
2022-10-30T22:17:22.116Z,46.21
2022-10-30T22:19:48.699Z,46.34
2022-10-30T22:22:15.463Z,46.45
2022-10-30T22:24:42.142Z,46.66
2022-10-30T22:27:08.699Z,46.66
2022-10-30T22:29:35.687Z,46.59
2022-10-30T22:32:02.337Z,46.28
2022-10-30T22:34:29.085Z,46.79
2022-10-30T22:36:55.703Z,47.51
2022-10-30T22:39:22.360Z,47.17
2022-10-30T22:41:49.620Z,48.43
2022-10-30T22:44:18.539Z,47.99
2022-10-30T22:46:45.210Z,48.28
2022-10-30T22:49:11.910Z,48.35
2022-10-30T22:51:39.990Z,47.58
2022-10-30T22:54:09.589Z,47.56
2022-10-30T22:56:36.997Z,47.46
2022-10-30T22:59:10.967Z,47.62
2022-10-30T23:01:38.755Z,47.97
2022-10-30T23:04:06.692Z,47.77
2022-10-30T23:06:34.768Z,47.80
2022-10-30T23:09:05.378Z,47.81
2022-10-30T23:11:33.425Z,49.06
2022-10-30T23:14:00.034Z,48.06
2022-10-30T23:16:27.640Z,48.33
2022-10-30T23:18:56.782Z,48.05
2022-10-30T23:21:25.322Z,47.97
2022-10-30T23:23:52.590Z,48.36
2022-10-30T23:26:21.996Z,48.04
2022-10-30T23:28:50.729Z,47.58
2022-10-30T23:31:23.405Z,47.28
2022-10-30T23:33:51.591Z,47.32
2022-10-30T23:36:18.725Z,47.22
2022-10-30T23:38:51.194Z,47.74
2022-10-30T23:41:17.829Z,47.51
2022-10-30T23:43:44.482Z,47.74
2022-10-30T23:46:11.052Z,47.83
2022-10-30T23:48:37.697Z,47.99
2022-10-30T23:51:08.305Z,47.65
2022-10-30T23:53:35.149Z,47.67
2022-10-30T23:56:01.927Z,48.24
2022-10-30T23:58:28.513Z,47.83
